This is the latest recevied weather packets stored in our database for station/object VE7OTD. If no packets are shown the sender has not sent any weather packets the latest 10 day(s).
| Time | Temp. | Humidity | Pressure | Rain* | Wind** | Luminosity | Snow |
|---|---|---|---|---|---|---|---|
| 1777714035 | 10.56° C | 82% | 1017.1 hPa | 0 mm | - | - | - |
| 1777712220 | 10.56° C | 80% | 1017.1 hPa | 0 mm | - | - | - |
| 1777710404 | 11.11° C | 78% | 1017.2 hPa | 0 mm | - | - | - |
| 1777708590 | 11.67° C | 75% | 1017.2 hPa | 0 mm | - | - | - |
| 1777706765 | 13.33° C | 68% | 1017.1 hPa | 0 mm | - | - | - |
| 1777704959 | 13.89° C | 64% | 1016.8 hPa | 0 mm | - | - | - |
| 1777703150 | 14.44° C | 62% | 1016.6 hPa | 0 mm | - | - | - |
| 1777701348 | 15° C | 62% | 1016.3 hPa | 0 mm | - | - | - |
| 1777699534 | 15.56° C | 62% | 1016.2 hPa | 0 mm | - | - | - |
| 1777697718 | 14.44° C | 68% | 1016.1 hPa | 0 mm | - | - | - |
| 1777695903 | 13.89° C | 72% | 1015.9 hPa | 0 mm | - | - | - |
| 1777694088 | 15.56° C | 68% | 1015.6 hPa | 0 mm | - | - | - |
| 1777692273 | 16.67° C | 60% | 1015.5 hPa | 0 mm | - | - | - |
| 1777690459 | 18.33° C | 55% | 1015.3 hPa | 0 mm | - | - | - |
| 1777688643 | 18.89° C | 52% | 1015.3 hPa | 0 mm | - | - | - |
| 1777674187 | 19.44° C | 51% | 1016.5 hPa | 0 mm | - | - | - |
| 1777672372 | 18.89° C | 52% | 1016.6 hPa | 0 mm | - | - | - |
| 1777670561 | 19.44° C | 54% | 1016.7 hPa | 0 mm | - | - | - |
| 1777666932 | 20.56° C | 55% | 1016.9 hPa | 0 mm | - | - | - |
| 1777665130 | 19.44° C | 58% | 1017.1 hPa | 0 mm | - | - | - |
| 1777663315 | 18.33° C | 60% | 1017.1 hPa | 0 mm | - | - | - |
| 1777659685 | 17.22° C | 62% | 1017.3 hPa | 0 mm | - | - | - |
| 1777656055 | 15.56° C | 65% | 1017.4 hPa | 0 mm | - | - | - |
| 1777652440 | 14.44° C | 68% | 1017.4 hPa | 0 mm | - | - | - |
| 1777650610 | 13.89° C | 67% | 1017.5 hPa | 0 mm | - | - | - |
* Rain latest hour (hover to see other rain measurements)
** Current wind speed in m/s (hover to see current wind gust speed)